createdAt,value
2022-07-28T00:00:34.071Z,9.70
2022-07-28T00:04:51.112Z,9.50
2022-07-28T00:09:08.125Z,9.60
2022-07-28T00:13:25.168Z,9.60
2022-07-28T00:17:42.206Z,9.50
2022-07-28T00:21:59.330Z,9.50
2022-07-28T00:26:16.314Z,9.60
2022-07-28T00:30:33.352Z,9.60
2022-07-28T00:34:53.470Z,9.70
2022-07-28T00:39:10.775Z,9.80
2022-07-28T00:43:27.844Z,9.70
2022-07-28T00:47:44.837Z,9.70
2022-07-28T00:52:02.667Z,9.50
2022-07-28T00:56:20.168Z,9.40
2022-07-28T01:00:37.193Z,9.40
2022-07-28T01:04:54.200Z,9.30
2022-07-28T01:09:11.172Z,9.20
2022-07-28T01:13:33.253Z,9.30
2022-07-28T01:17:50.367Z,9.30
2022-07-28T01:22:09.581Z,9.10
2022-07-28T01:26:55.716Z,9.00
2022-07-28T01:31:16.838Z,9.00
2022-07-28T01:35:38.050Z,8.90
2022-07-28T01:39:57.526Z,8.90
2022-07-28T01:44:16.511Z,8.90
2022-07-28T01:48:34.362Z,8.70
2022-07-28T01:52:52.084Z,8.90
2022-07-28T01:57:14.394Z,8.80
2022-07-28T02:01:32.184Z,8.60
2022-07-28T02:05:50.432Z,8.50
2022-07-28T02:10:08.022Z,8.60
2022-07-28T02:14:26.201Z,8.40
2022-07-28T02:18:43.816Z,8.50
2022-07-28T02:23:01.038Z,8.50
2022-07-28T02:27:27.019Z,8.30
2022-07-28T02:32:24.125Z,8.30
2022-07-28T02:36:53.601Z,8.30
2022-07-28T02:41:15.604Z,8.30
2022-07-28T02:45:33.686Z,8.30
2022-07-28T02:49:51.476Z,8.10
2022-07-28T02:54:09.072Z,7.90
2022-07-28T02:58:27.871Z,7.90
2022-07-28T03:02:46.985Z,7.70
2022-07-28T03:07:04.779Z,7.60
2022-07-28T03:11:21.787Z,7.80
2022-07-28T03:15:40.338Z,7.80
2022-07-28T03:19:57.399Z,7.80
2022-07-28T03:24:15.195Z,7.70
2022-07-28T03:28:33.750Z,7.70
2022-07-28T03:32:52.405Z,7.70
2022-07-28T03:37:12.081Z,7.50
2022-07-28T03:41:29.946Z,7.50
2022-07-28T03:45:47.822Z,7.70
2022-07-28T03:50:05.233Z,7.80
2022-07-28T03:54:22.284Z,7.70
2022-07-28T03:58:39.291Z,7.80
2022-07-28T04:02:56.452Z,7.90
2022-07-28T04:07:13.527Z,7.90
2022-07-28T04:11:30.529Z,7.90
2022-07-28T04:15:47.510Z,7.90
2022-07-28T04:20:04.748Z,8.00
2022-07-28T04:24:21.748Z,8.10
2022-07-28T04:28:38.798Z,8.30
2022-07-28T04:32:56.266Z,8.50
2022-07-28T04:37:14.708Z,8.70
2022-07-28T04:41:31.778Z,9.10
2022-07-28T04:45:54.178Z,9.40
2022-07-28T04:50:15.083Z,9.70
2022-07-28T04:54:32.081Z,9.90
2022-07-28T04:58:49.127Z,10.10
2022-07-28T05:03:06.177Z,10.40
2022-07-28T05:07:23.188Z,10.50
2022-07-28T05:11:40.205Z,10.80
2022-07-28T05:15:57.239Z,11.00
2022-07-28T05:20:14.415Z,11.20
2022-07-28T05:24:31.558Z,11.40
2022-07-28T05:28:48.684Z,11.50
2022-07-28T05:33:05.724Z,11.80
2022-07-28T05:37:22.718Z,12.00
2022-07-28T05:41:39.721Z,12.20
2022-07-28T05:45:56.882Z,12.20
2022-07-28T05:50:17.861Z,12.50
2022-07-28T05:54:34.884Z,12.80
2022-07-28T05:58:53.105Z,13.00
2022-07-28T06:03:10.121Z,13.00
2022-07-28T06:07:42.987Z,13.20
2022-07-28T06:12:01.386Z,13.30
2022-07-28T06:16:20.794Z,13.30
2022-07-28T06:20:38.324Z,13.30
2022-07-28T06:24:55.559Z,13.10
2022-07-28T06:29:12.780Z,13.30
2022-07-28T06:33:29.916Z,13.50
2022-07-28T06:37:47.389Z,13.80
2022-07-28T06:42:04.406Z,14.10
2022-07-28T06:46:22.145Z,14.10
2022-07-28T06:50:39.377Z,14.10
2022-07-28T06:54:58.477Z,14.10
2022-07-28T06:59:16.474Z,14.20
2022-07-28T07:03:34.019Z,14.30
2022-07-28T07:07:51.063Z,14.50
2022-07-28T07:12:08.094Z,14.70
2022-07-28T07:16:25.167Z,15.00
2022-07-28T07:20:42.213Z,15.20
2022-07-28T07:25:06.886Z,15.20
2022-07-28T07:29:24.396Z,15.40
2022-07-28T07:33:41.697Z,15.70
2022-07-28T07:37:58.763Z,16.00
2022-07-28T07:42:15.782Z,16.40
2022-07-28T07:46:32.775Z,16.40
2022-07-28T07:50:53.808Z,18.00
2022-07-28T07:55:11.343Z,19.50
2022-07-28T07:59:28.436Z,20.60
2022-07-28T08:03:46.216Z,20.90
2022-07-28T08:08:07.528Z,21.20
2022-07-28T08:12:25.148Z,21.50
2022-07-28T08:16:42.386Z,22.00
2022-07-28T08:20:59.536Z,22.80
2022-07-28T08:25:17.012Z,22.80
2022-07-28T08:29:34.093Z,23.00
2022-07-28T08:33:54.154Z,23.20
2022-07-28T08:38:12.711Z,24.60
2022-07-28T08:42:40.507Z,25.30
2022-07-28T08:46:59.087Z,25.00
2022-07-28T08:51:16.501Z,25.90
2022-07-28T08:55:33.909Z,26.20
2022-07-28T08:59:51.703Z,26.50
2022-07-28T09:04:09.093Z,26.40
2022-07-28T09:08:26.334Z,27.00
2022-07-28T09:12:43.416Z,27.10
2022-07-28T09:17:01.704Z,27.40
2022-07-28T09:21:19.204Z,26.70
2022-07-28T09:25:36.282Z,27.10
2022-07-28T09:30:00.267Z,27.00
2022-07-28T09:34:18.339Z,26.70
2022-07-28T09:38:40.126Z,27.20
2022-07-28T09:42:58.221Z,27.80
2022-07-28T09:47:25.633Z,28.00
2022-07-28T09:51:43.096Z,27.30
2022-07-28T09:56:01.621Z,27.30
2022-07-28T10:00:25.828Z,28.60
2022-07-28T10:04:45.061Z,28.20
2022-07-28T10:09:03.265Z,28.80
2022-07-28T10:13:20.303Z,29.50
2022-07-28T10:17:37.299Z,29.20
2022-07-28T10:21:54.461Z,29.10
2022-07-28T10:26:13.156Z,28.50
2022-07-28T10:30:33.687Z,28.50
2022-07-28T10:34:54.099Z,29.10
2022-07-28T10:39:18.252Z,29.40
2022-07-28T10:43:35.592Z,28.20
2022-07-28T10:47:53.671Z,29.10
2022-07-28T10:52:30.488Z,29.50
2022-07-28T10:56:50.993Z,29.60
2022-07-28T11:01:10.608Z,28.90
2022-07-28T11:05:34.971Z,28.60
2022-07-28T11:09:53.397Z,29.50
2022-07-28T11:14:37.161Z,29.60
2022-07-28T11:19:07.601Z,29.30
2022-07-28T11:23:37.961Z,27.80
2022-07-28T11:28:01.054Z,27.70
2022-07-28T11:32:18.048Z,30.40
2022-07-28T11:36:53.664Z,29.40
2022-07-28T11:41:26.698Z,28.50
2022-07-28T11:45:47.495Z,30.50
2022-07-28T11:50:14.946Z,29.90
2022-07-28T11:54:32.009Z,30.20
2022-07-28T11:58:56.356Z,30.00
2022-07-28T12:03:48.887Z,30.40
2022-07-28T12:08:08.416Z,30.10
2022-07-28T12:12:28.012Z,31.10
2022-07-28T12:16:45.843Z,30.30
2022-07-28T12:21:05.204Z,30.70
2022-07-28T12:25:22.492Z,30.00
2022-07-28T12:29:39.725Z,30.80
2022-07-28T12:33:56.900Z,30.20
2022-07-28T12:38:14.211Z,30.50
2022-07-28T12:42:32.249Z,32.30
2022-07-28T12:46:49.331Z,31.30
2022-07-28T12:51:06.370Z,31.90
2022-07-28T12:55:30.556Z,31.50
2022-07-28T12:59:47.580Z,29.00
2022-07-28T13:04:04.659Z,29.10
2022-07-28T13:08:23.069Z,29.50
2022-07-28T13:12:40.054Z,31.20
2022-07-28T13:16:57.378Z,32.00
2022-07-28T13:21:15.678Z,30.70
2022-07-28T13:25:32.715Z,32.00
2022-07-28T13:29:50.004Z,32.50
2022-07-28T13:34:08.166Z,31.50
2022-07-28T13:38:25.151Z,32.00
2022-07-28T13:42:52.772Z,31.30
2022-07-28T13:47:16.670Z,30.40
2022-07-28T13:51:34.692Z,29.80
2022-07-28T13:55:52.354Z,30.40
2022-07-28T14:00:09.578Z,31.00
2022-07-28T14:04:30.649Z,30.20
2022-07-28T14:08:48.668Z,30.70
2022-07-28T14:13:09.765Z,32.10
2022-07-28T14:17:47.336Z,31.30
2022-07-28T14:22:05.841Z,30.70
2022-07-28T14:26:36.137Z,31.60
2022-07-28T14:30:53.322Z,32.00
2022-07-28T14:35:10.472Z,31.60
2022-07-28T14:39:27.575Z,32.20
2022-07-28T14:43:44.553Z,32.30
2022-07-28T14:48:01.583Z,32.10
2022-07-28T14:52:18.592Z,32.10
2022-07-28T14:56:37.414Z,32.80
2022-07-28T15:00:54.740Z,32.90
2022-07-28T15:05:11.818Z,32.60
2022-07-28T15:09:29.277Z,32.60
2022-07-28T15:13:46.283Z,31.70
2022-07-28T15:18:03.712Z,30.80
2022-07-28T15:22:20.715Z,31.40
2022-07-28T15:26:43.513Z,32.00
2022-07-28T15:31:00.965Z,31.40
2022-07-28T15:35:18.411Z,31.30
2022-07-28T15:39:35.526Z,31.10
2022-07-28T15:43:52.533Z,30.70
2022-07-28T15:48:10.132Z,30.00
2022-07-28T15:52:27.150Z,29.90
2022-07-28T15:56:44.209Z,29.10
2022-07-28T16:01:02.144Z,28.60
2022-07-28T16:05:19.569Z,28.40
2022-07-28T16:09:45.308Z,28.30
2022-07-28T16:14:03.656Z,28.40
2022-07-28T16:18:20.663Z,27.80
2022-07-28T16:22:38.331Z,27.40
2022-07-28T16:26:55.893Z,27.00
2022-07-28T16:31:12.933Z,26.90
2022-07-28T16:35:32.805Z,26.80
2022-07-28T16:39:49.805Z,26.60
2022-07-28T16:44:06.853Z,26.70
2022-07-28T16:48:23.851Z,26.40
2022-07-28T16:52:41.155Z,26.10
2022-07-28T16:56:58.193Z,25.70
2022-07-28T17:01:15.856Z,25.30
2022-07-28T17:05:34.870Z,25.20
2022-07-28T17:09:51.952Z,25.40
2022-07-28T17:14:10.869Z,25.30
2022-07-28T17:18:28.154Z,25.10
2022-07-28T17:22:45.391Z,24.80
2022-07-28T17:27:36.540Z,24.80
2022-07-28T17:31:39.667Z,24.70
2022-07-28T17:35:58.364Z,24.60
2022-07-28T17:40:15.377Z,24.50
2022-07-28T17:44:33.851Z,24.40
2022-07-28T17:48:51.192Z,24.20
2022-07-28T17:53:09.077Z,24.10
2022-07-28T17:57:27.672Z,23.90
2022-07-28T18:01:47.561Z,23.80
2022-07-28T18:06:04.777Z,23.80
2022-07-28T18:10:25.046Z,23.70
2022-07-28T18:14:44.221Z,23.60
2022-07-28T18:19:01.974Z,23.50
2022-07-28T18:23:19.621Z,23.30
2022-07-28T18:27:36.734Z,23.20
2022-07-28T18:31:53.782Z,23.10
2022-07-28T18:36:10.844Z,22.90
2022-07-28T18:40:28.862Z,22.80
2022-07-28T18:44:45.881Z,22.70
2022-07-28T18:49:03.064Z,22.60
2022-07-28T18:53:20.147Z,22.30
2022-07-28T18:57:37.697Z,22.20
2022-07-28T19:01:54.758Z,22.10
2022-07-28T19:06:11.881Z,21.90
2022-07-28T19:10:28.894Z,21.70
2022-07-28T19:14:45.858Z,21.60
2022-07-28T19:19:02.940Z,21.40
2022-07-28T19:23:19.943Z,21.20
2022-07-28T19:27:37.185Z,21.00
2022-07-28T19:31:54.270Z,20.80
2022-07-28T19:36:14.455Z,20.60
2022-07-28T19:40:32.229Z,20.40
2022-07-28T19:44:52.035Z,20.20
2022-07-28T19:49:12.810Z,20.00
2022-07-28T19:53:31.768Z,19.90
2022-07-28T19:57:49.439Z,19.60
2022-07-28T20:02:07.011Z,19.10
2022-07-28T20:06:24.949Z,18.80
2022-07-28T20:10:42.523Z,18.60
2022-07-28T20:14:59.638Z,18.30
2022-07-28T20:19:16.677Z,18.00
2022-07-28T20:23:34.222Z,17.70
2022-07-28T20:27:51.657Z,17.60
2022-07-28T20:32:08.674Z,17.30
2022-07-28T20:36:29.620Z,17.10
2022-07-28T20:40:47.066Z,17.00
2022-07-28T20:45:05.006Z,16.80
2022-07-28T20:49:22.440Z,16.70
2022-07-28T20:53:39.483Z,16.60
2022-07-28T20:57:57.484Z,16.50
2022-07-28T21:02:14.524Z,16.30
2022-07-28T21:06:31.901Z,16.30
2022-07-28T21:10:49.200Z,16.40
2022-07-28T21:15:07.257Z,16.40
2022-07-28T21:19:24.734Z,16.10
2022-07-28T21:23:41.743Z,15.90
2022-07-28T21:28:17.361Z,15.60
2022-07-28T21:32:34.342Z,15.40
2022-07-28T21:36:51.365Z,15.40
2022-07-28T21:41:08.432Z,15.00
2022-07-28T21:45:25.439Z,14.90
2022-07-28T21:49:42.422Z,14.90
2022-07-28T21:54:00.076Z,15.00
2022-07-28T21:58:17.094Z,14.80
2022-07-28T22:02:34.138Z,14.70
2022-07-28T22:06:51.100Z,14.70
2022-07-28T22:11:08.132Z,14.80
2022-07-28T22:15:25.151Z,14.90
2022-07-28T22:19:42.170Z,15.10
2022-07-28T22:23:59.253Z,14.80
2022-07-28T22:28:16.317Z,14.70
2022-07-28T22:32:46.617Z,14.80
2022-07-28T22:37:11.122Z,14.80
2022-07-28T22:41:30.130Z,14.90
2022-07-28T22:45:50.733Z,14.80
2022-07-28T22:50:09.211Z,14.80
2022-07-28T22:54:26.227Z,14.80
2022-07-28T22:58:43.311Z,14.70
2022-07-28T23:03:00.381Z,14.60
2022-07-28T23:07:19.307Z,14.60
2022-07-28T23:11:36.525Z,14.60
2022-07-28T23:15:53.517Z,14.60
2022-07-28T23:20:10.734Z,14.70
2022-07-28T23:24:27.779Z,14.80
2022-07-28T23:28:44.849Z,14.70
2022-07-28T23:33:02.016Z,14.80
2022-07-28T23:37:19.112Z,14.90
2022-07-28T23:41:36.100Z,15.00
2022-07-28T23:45:53.082Z,15.10
2022-07-28T23:50:10.314Z,15.10
2022-07-28T23:54:27.347Z,14.90
2022-07-28T23:58:44.412Z,14.80
